Terminal Aerodrome Forecast
Issued by NWS Jacksonville, FL

Home | Current Version | Previous Version | Text Only | Print | Product List | Glossary On
Versions: 1 2 3 4 5 6 7 8 9 10 11 12 13 14 15 16 17 18 19
506
FTUS42 KJAX 251759 AAA
TAFJAX
TAF AMD
KJAX 251759Z 2518/2618 25011KT 6SM FU SCT020 SCT040
      TEMPO 2518/2520 2SM FU BKN020
     FM260000 24005KT P6SM FEW250=

USA.gov is the U.S. government's official web portal to all federal, state and local government web resources and services.